Aviation Digital Data Service (ADDS)

Output produced by METARs form (2228 UTC 26 January 2015)
found at http://aviationweather.gov/adds/metars/
 
KMSS 262135Z 2622/2718 06014G20KT P6SM BKN150 BKN200 
     FM270000 06014G20KT P6SM OVC080 
     FM270600 04014G24KT P6SM OVC060 
     FM271200 03015G25KT P6SM OVC070